Time;durP1;ratioP1;P1;durP2;ratioP2;P2;SDS_P1;SDS_P2;PMS_P1;PMS_P2;Temp;Humidity;BMP_temperature;BMP_pressure;BME280_temperature;BME280_humidity;BME280_pressure;Samples;Min_cycle;Max_cycle;Signal;HPM_P1;HPM_P2
2022/03/19 00:02:20;;;;;;;0.00;0.00;;;;;;;11.02;57.41;103321.97;7349269;19;20044;-63
2022/03/19 00:04:46;;;;;;;0.00;0.00;;;;;;;10.97;57.34;103321.88;7354676;19;20010;-63
2022/03/19 00:07:11;;;;;;;0.00;0.00;;;;;;;10.93;58.13;103329.63;7357160;19;20007;-63
2022/03/19 00:09:39;;;;;;;0.00;0.00;;;;;;;10.88;58.94;103338.25;7361301;19;20026;-63
2022/03/19 00:12:06;;;;;;;0.00;0.00;;;;;;;10.74;59.70;103307.50;7362462;19;20014;-63
2022/03/19 00:14:31;;;;;;;0.00;0.00;;;;;;;10.61;60.69;103296.81;7358504;19;20010;-63
2022/03/19 00:16:57;;;;;;;0.00;0.00;;;;;;;10.73;60.65;103326.66;7362445;19;20435;-63
2022/03/19 00:19:23;;;;;;;0.00;0.00;;;;;;;10.67;61.01;103316.09;7354531;19;20032;-62
2022/03/19 00:21:49;;;;;;;0.00;0.00;;;;;;;10.64;61.36;103325.66;7363547;19;20026;-63
2022/03/19 00:24:15;;;;;;;0.00;0.00;;;;;;;10.56;61.26;103315.88;7360643;19;20018;-63
2022/03/19 00:26:40;;;;;;;0.00;0.00;;;;;;;10.57;61.82;103331.59;7355985;19;20014;-63
2022/03/19 00:29:06;;;;;;;0.00;0.00;;;;;;;10.56;62.01;103335.06;7365042;19;20019;-63
2022/03/19 00:31:31;;;;;;;0.00;0.00;;;;;;;10.54;62.42;103336.78;7368640;19;20014;-62
2022/03/19 00:33:57;;;;;;;0.00;0.00;;;;;;;10.53;62.62;103332.38;7362190;19;20010;-62
2022/03/19 00:36:22;;;;;;;0.00;0.00;;;;;;;10.43;62.47;103316.47;7356736;19;20041;-63
2022/03/19 00:38:48;;;;;;;0.00;0.00;;;;;;;10.50;62.55;103329.72;7358514;19;20093;-63
2022/03/19 00:41:13;;;;;;;0.00;0.00;;;;;;;10.50;62.71;103334.06;7350542;19;20095;-63
2022/03/19 00:43:39;;;;;;;0.00;0.00;;;;;;;10.50;62.84;103339.28;7347184;19;20010;-63
2022/03/19 00:46:05;;;;;;;0.00;0.00;;;;;;;10.50;62.99;103334.94;7353120;19;20066;-63
2022/03/19 00:48:30;;;;;;;0.10;0.10;;;;;;;10.49;62.81;103327.97;7353732;19;20034;-63
2022/03/19 00:50:56;;;;;;;0.00;0.00;;;;;;;10.49;63.22;103335.81;7359264;19;20014;-63
2022/03/19 00:53:41;;;;;;;0.00;0.00;;;;;;;10.50;62.03;103329.72;4351330;19;10003184;-63
2022/03/19 00:56:06;;;;;;;0.00;0.00;;;;;;;10.50;62.56;103329.72;5020236;19;10001098;-62
2022/03/19 00:58:32;;;;;;;0.00;0.00;;;;;;;10.50;63.31;103332.31;7362692;19;20045;-63
2022/03/19 01:00:57;;;;;;;0.00;0.00;;;;;;;10.49;63.16;103320.13;7349461;19;20018;-62
2022/03/19 01:03:23;;;;;;;0.00;0.00;;;;;;;10.50;62.97;103328.84;7356032;19;20049;-63
2022/03/19 01:05:48;;;;;;;0.00;0.00;;;;;;;10.49;63.46;103322.75;7340775;19;20026;-63
2022/03/19 01:08:14;;;;;;;0.00;0.00;;;;;;;10.49;63.15;103317.50;7353940;19;20010;-63
2022/03/19 01:10:40;;;;;;;0.00;0.00;;;;;;;10.49;62.75;103320.13;7354780;19;20056;-63
2022/03/19 01:13:06;;;;;;;0.05;0.05;;;;;;;10.48;62.76;103326.16;7357105;19;20632;-62
2022/03/19 01:15:33;;;;;;;0.00;0.00;;;;;;;10.48;62.27;103318.34;7355712;19;20017;-63
2022/03/19 01:18:00;;;;;;;0.00;0.00;;;;;;;10.47;62.31;103316.59;7354774;19;20119;-63
2022/03/19 01:20:26;;;;;;;0.00;0.00;;;;;;;10.45;61.40;103313.06;7357694;19;20438;-63
2022/03/19 01:22:51;;;;;;;0.00;0.00;;;;;;;10.42;61.65;103309.50;7361134;19;20324;-63
2022/03/19 01:25:19;;;;;;;0.00;0.00;;;;;;;10.41;60.77;103311.25;7339710;19;20014;-63
2022/03/19 01:27:45;;;;;;;;;;;;;;;10.40;58.83;103312.09;7362497;19;20017;-63
2022/03/19 01:30:13;;;;;;;0.00;0.00;;;;;;;10.34;60.20;103307.63;7344863;19;19915;-63
2022/03/19 01:32:40;;;;;;;0.00;0.00;;;;;;;10.30;60.91;103305.81;7361600;19;20034;-63
2022/03/19 01:35:06;;;;;;;0.00;0.00;;;;;;;10.26;60.40;103308.31;7354402;19;20014;-62
2022/03/19 01:37:31;;;;;;;0.00;0.00;;;;;;;10.22;60.76;103301.22;7359288;19;20006;-62
2022/03/19 01:39:57;;;;;;;0.00;0.00;;;;;;;10.18;60.83;103294.19;7357342;19;20507;-62
2022/03/19 01:42:28;;;;;;;0.00;0.00;;;;;;;10.04;60.91;103270.44;7358510;19;20039;-62
2022/03/19 01:44:55;;;;;;;0.00;0.00;;;;;;;10.12;61.01;103293.22;7345661;19;20041;-62
2022/03/19 01:47:21;;;;;;;0.00;0.00;;;;;;;10.07;60.57;103284.41;7359904;19;20045;-63
2022/03/19 01:49:47;;;;;;;0.00;0.00;;;;;;;10.05;61.28;103278.28;7353376;19;20014;-62
2022/03/19 01:52:13;;;;;;;0.00;0.00;;;;;;;10.02;61.08;103275.59;7349754;19;20026;-62
2022/03/19 01:54:42;;;;;;;0.00;0.00;;;;;;;10.00;60.79;103268.59;7364639;19;20021;-63
2022/03/19 01:57:08;;;;;;;0.00;0.00;;;;;;;9.94;60.28;103269.34;7369832;19;20097;-63
2022/03/19 01:59:36;;;;;;;0.00;0.00;;;;;;;9.83;59.75;103250.84;7364574;19;20002;-63
2022/03/19 02:02:07;;;;;;;0.00;0.00;;;;;;;9.88;60.42;103261.38;7367328;19;20770;-63
2022/03/19 02:04:36;;;;;;;0.00;0.00;;;;;;;9.84;61.26;103270.88;7357995;19;20952;-63
2022/03/19 02:07:03;;;;;;;0.00;0.00;;;;;;;9.78;62.17;103254.19;7355710;19;20018;-62
2022/03/19 02:09:29;;;;;;;0.00;0.00;;;;;;;9.76;62.80;103255.91;7355749;19;20014;-63
2022/03/19 02:11:55;;;;;;;0.00;0.00;;;;;;;9.69;63.12;103234.00;7352377;19;20015;-63
2022/03/19 02:14:20;;;;;;;0.00;0.00;;;;;;;9.72;63.85;103238.41;7354890;19;20020;-62
2022/03/19 02:16:47;;;;;;;0.00;0.00;;;;;;;9.72;64.22;103235.78;7352070;19;20014;-62
2022/03/19 02:19:12;;;;;;;0.00;0.00;;;;;;;9.67;63.04;103227.88;7358625;19;20003;-62
2022/03/19 02:21:39;;;;;;;0.00;0.00;;;;;;;9.75;63.84;103228.03;7343883;19;20016;-62
2022/03/19 02:26:49;;;;;;;0.00;0.00;;;;;;;9.77;64.01;103213.28;7358849;19;20013;-62
2022/03/19 02:29:15;;;;;;;0.00;0.00;;;;;;;9.83;63.79;103210.81;7359739;19;20018;-63
2022/03/19 02:31:44;;;;;;;0.00;0.00;;;;;;;9.86;64.07;103213.47;7344765;19;20014;-63
2022/03/19 02:34:10;;;;;;;0.00;0.00;;;;;;;9.90;62.98;103210.09;7354328;19;20059;-63
2022/03/19 02:36:37;;;;;;;0.00;0.00;;;;;;;9.96;63.83;103215.44;7361362;19;20013;-62
2022/03/19 02:39:20;;;;;;;0.00;0.00;;;;;;;10.05;62.55;103205.19;7358284;19;20022;-63
2022/03/19 02:41:49;;;;;;;0.00;0.00;;;;;;;10.08;63.68;103210.44;7356773;19;20010;-62
2022/03/19 02:44:18;;;;;;;0.00;0.00;;;;;;;10.17;63.76;103222.81;7358736;19;20437;-63
2022/03/19 02:46:54;;;;;;;0.00;0.00;;;;;;;10.21;63.90;103202.88;5789144;19;10002079;-63
2022/03/19 02:49:20;;;;;;;0.00;0.00;;;;;;;10.27;63.49;103205.63;3344203;19;10001655;-63
2022/03/19 02:51:47;;;;;;;0.00;0.00;;;;;;;10.30;63.25;103206.56;7340975;19;20054;-63
2022/03/19 02:54:16;;;;;;;0.00;0.00;;;;;;;10.33;63.82;103205.72;7356263;19;20042;-63
2022/03/19 02:56:43;;;;;;;0.00;0.00;;;;;;;10.35;62.78;103198.81;7358684;19;20014;-63
2022/03/19 02:59:18;;;;;;;0.00;0.00;;;;;;;10.39;62.60;103198.00;7344825;19;20082;-63
2022/03/19 03:01:44;;;;;;;0.00;0.00;;;;;;;10.35;62.58;103177.91;7354131;19;20010;-63
2022/03/19 03:04:10;;;;;;;0.00;0.00;;;;;;;10.40;63.10;103191.94;7345310;19;20019;-63
2022/03/19 03:06:39;;;;;;;0.00;0.00;;;;;;;10.42;61.93;103190.22;7349805;19;20098;-63
2022/03/19 03:09:05;;;;;;;0.00;0.00;;;;;;;10.43;61.91;103196.31;7351032;19;20141;-63
2022/03/19 03:11:31;;;;;;;0.10;0.10;;;;;;;10.44;62.01;103182.41;7350096;19;20006;-63
2022/03/19 03:13:56;;;;;;;0.00;0.00;;;;;;;10.44;61.91;103175.47;7352587;19;21283;-63
2022/03/19 03:16:22;;;;;;;0.00;0.00;;;;;;;10.44;61.79;103172.88;7351279;19;20025;-63
2022/03/19 03:18:48;;;;;;;0.00;0.00;;;;;;;10.48;61.79;103177.25;7348545;19;20010;-63
2022/03/19 03:21:13;;;;;;;0.00;0.00;;;;;;;10.50;61.54;103177.31;7354444;19;20026;-63
2022/03/19 03:23:39;;;;;;;0.00;0.00;;;;;;;10.45;61.26;103169.41;7348665;19;20026;-63
2022/03/19 03:26:05;;;;;;;0.00;0.00;;;;;;;10.44;61.07;103157.19;7361220;19;20018;-63
2022/03/19 03:28:30;;;;;;;0.00;0.00;;;;;;;10.52;60.94;103176.47;7360360;19;20039;-63
2022/03/19 03:30:56;;;;;;;0.00;0.00;;;;;;;10.53;60.90;103178.22;7357530;19;20003;-63
2022/03/19 03:33:22;;;;;;;0.00;0.00;;;;;;;10.53;61.59;103178.22;7358627;19;20017;-63
2022/03/19 03:35:48;;;;;;;0.00;0.00;;;;;;;10.52;61.39;103171.25;7352353;19;20010;-63
2022/03/19 03:38:13;;;;;;;0.00;0.00;;;;;;;10.48;61.53;103166.81;7354162;19;20021;-63
2022/03/19 03:40:41;;;;;;;0.00;0.00;;;;;;;10.49;61.63;103176.44;7342846;19;20018;-63
2022/03/19 03:43:07;;;;;;;0.00;0.00;;;;;;;10.47;61.00;103167.66;7357394;19;20017;-63
2022/03/19 03:45:33;;;;;;;0.00;0.00;;;;;;;10.30;61.20;103137.78;7354908;19;20014;-63
2022/03/19 03:47:58;;;;;;;0.00;0.00;;;;;;;10.35;60.63;103157.03;7358424;19;20796;-63
2022/03/19 03:50:24;;;;;;;0.00;0.00;;;;;;;10.41;60.61;103170.19;7352375;19;20014;-63
2022/03/19 03:52:49;;;;;;;0.00;0.00;;;;;;;10.36;61.03;103158.78;7357906;19;20010;-63
2022/03/19 03:55:15;;;;;;;0.00;0.00;;;;;;;10.36;60.52;103162.25;7360430;19;20029;-63
2022/03/19 03:57:41;;;;;;;0.00;0.00;;;;;;;10.35;60.26;103168.34;7356907;19;20018;-63
2022/03/19 04:00:11;;;;;;;0.00;0.00;;;;;;;10.34;60.77;103160.47;7357569;19;20020;-63
2022/03/19 04:02:37;;;;;;;0.00;0.00;;;;;;;10.28;60.41;103149.91;7359944;19;20031;-63
2022/03/19 04:05:03;;;;;;;0.00;0.00;;;;;;;10.31;60.24;103158.69;7348924;19;20018;-62
2022/03/19 04:07:30;;;;;;;0.05;0.05;;;;;;;10.24;60.05;103151.63;7351091;19;20014;-63
2022/03/19 04:09:55;;;;;;;0.00;0.00;;;;;;;10.32;60.77;103163.06;7355660;19;20021;-63
2022/03/19 04:12:22;;;;;;;0.00;0.00;;;;;;;10.32;60.73;103156.97;7358943;19;20015;-63
2022/03/19 04:14:49;;;;;;;0.00;0.00;;;;;;;10.31;60.41;103166.53;7364183;19;20011;-63
2022/03/19 04:17:14;;;;;;;0.00;0.00;;;;;;;10.30;60.71;103163.91;7365046;19;20014;-63
2022/03/19 04:19:40;;;;;;;0.10;0.10;;;;;;;10.30;61.03;103169.13;7347386;19;20051;-63
2022/03/19 04:22:06;;;;;;;0.10;0.10;;;;;;;10.18;60.90;103138.38;7359661;19;20019;-63
2022/03/19 04:24:31;;;;;;;0.10;0.10;;;;;;;10.28;60.76;103161.25;7361034;19;20042;-63
2022/03/19 04:26:57;;;;;;;0.00;0.00;;;;;;;10.28;60.60;103155.13;7362631;19;20021;-63
2022/03/19 04:29:23;;;;;;;0.00;0.00;;;;;;;10.26;61.12;103156.84;7363706;19;20018;-63
2022/03/19 04:31:49;;;;;;;0.10;0.10;;;;;;;10.14;61.17;103145.31;7359721;19;20034;-63
2022/03/19 04:34:14;;;;;;;0.00;0.00;;;;;;;10.11;61.07;103145.25;7361182;19;20014;-63
2022/03/19 04:36:40;;;;;;;0.00;0.00;;;;;;;10.14;61.13;103149.66;7359520;19;20022;-63
2022/03/19 04:39:08;;;;;;;0.00;0.00;;;;;;;10.13;61.18;103153.09;7357514;19;20727;-63
2022/03/19 04:41:35;;;;;;;0.00;0.00;;;;;;;9.95;61.59;103124.94;7358657;19;20034;-62
2022/03/19 04:44:01;;;;;;;0.00;0.00;;;;;;;10.07;61.14;103151.25;7361206;19;20085;-62
2022/03/19 04:46:27;;;;;;;0.00;0.00;;;;;;;10.04;61.22;103138.16;7361683;19;20010;-63
2022/03/19 04:48:53;;;;;;;0.00;0.00;;;;;;;9.99;61.23;103147.63;7355209;19;20021;-63
2022/03/19 04:51:21;;;;;;;0.00;0.00;;;;;;;9.96;61.36;103141.47;7361916;19;20010;-63
2022/03/19 04:54:02;;;;;;;0.00;0.00;;;;;;;9.92;60.78;103130.09;3112566;19;10022762;-63
2022/03/19 04:56:29;;;;;;;0.00;0.00;;;;;;;9.86;61.29;103132.59;6038493;19;10000887;-63
2022/03/19 04:58:56;;;;;;;0.08;0.08;;;;;;;9.67;61.55;103101.75;7350171;19;20013;-63
2022/03/19 05:01:25;;;;;;;0.00;0.00;;;;;;;9.68;61.23;103108.72;7370273;19;20011;-63
2022/03/19 05:03:50;;;;;;;0.00;0.00;;;;;;;9.74;61.36;103127.13;7360638;19;20979;-62
2022/03/19 05:06:16;;;;;;;0.10;0.10;;;;;;;9.69;61.64;103132.25;7351322;19;20010;-63
2022/03/19 05:08:41;;;;;;;0.00;0.00;;;;;;;9.61;61.79;103119.06;7354106;19;20471;-62
2022/03/19 05:11:12;;;;;;;0.00;0.00;;;;;;;9.61;61.88;103124.28;7358542;19;20026;-63
2022/03/19 05:13:44;;;;;;;0.00;0.00;;;;;;;9.60;61.80;103130.34;7359928;19;20007;-63
2022/03/19 05:16:11;;;;;;;0.00;0.00;;;;;;;9.57;61.80;103121.56;7355317;19;20023;-62
2022/03/19 05:18:37;;;;;;;0.00;0.00;;;;;;;9.52;62.04;103113.63;7348548;19;20030;-63
2022/03/19 05:21:04;;;;;;;0.00;0.00;;;;;;;9.48;61.84;103119.66;7357713;19;20028;-62
2022/03/19 05:23:30;;;;;;;0.00;0.00;;;;;;;9.46;62.31;103123.94;7358409;19;20022;-63
2022/03/19 05:25:55;;;;;;;0.00;0.00;;;;;;;9.43;62.06;103123.00;7360485;19;20011;-62
2022/03/19 05:28:21;;;;;;;0.00;0.00;;;;;;;9.40;61.75;103125.56;7350385;19;20032;-63
2022/03/19 05:30:47;;;;;;;0.00;0.00;;;;;;;9.37;62.16;103118.53;7352738;19;20016;-63
2022/03/19 05:33:14;;;;;;;0.00;0.00;;;;;;;9.25;62.37;103097.44;7358809;19;20018;-63
2022/03/19 05:35:41;;;;;;;0.00;0.00;;;;;;;9.23;62.10;103100.03;7359038;19;20010;-62
2022/03/19 05:38:07;;;;;;;0.00;0.00;;;;;;;9.28;62.64;103107.94;7347098;19;20006;-63
2022/03/19 05:40:33;;;;;;;0.00;0.00;;;;;;;9.25;62.58;103118.28;7357613;19;20576;-63
2022/03/19 05:42:58;;;;;;;0.00;0.00;;;;;;;9.21;62.74;103100.81;7359071;19;20006;-63
2022/03/19 05:45:24;;;;;;;0.00;0.00;;;;;;;9.04;62.39;103088.31;7360284;19;20788;-62
2022/03/19 05:47:49;;;;;;;0.00;0.00;;;;;;;9.14;62.43;103098.94;7362662;19;20066;-63
2022/03/19 05:50:15;;;;;;;0.00;0.00;;;;;;;9.09;62.73;103104.94;7365249;19;20002;-63
2022/03/19 05:52:42;;;;;;;0.00;0.00;;;;;;;9.03;62.53;103091.78;7360078;19;20102;-62
2022/03/19 05:55:08;;;;;;;0.00;0.00;;;;;;;9.06;63.29;103096.16;7358530;19;20026;-62
2022/03/19 05:57:34;;;;;;;0.00;0.00;;;;;;;9.04;62.96;103093.53;7363308;19;20010;-63
2022/03/19 05:59:59;;;;;;;0.00;0.00;;;;;;;9.01;63.01;103093.44;7361477;19;20592;-63
2022/03/19 06:02:25;;;;;;;0.00;0.00;;;;;;;9.00;63.27;103096.91;7351986;19;20034;-63
2022/03/19 06:04:52;;;;;;;0.10;0.10;;;;;;;8.99;63.31;103089.94;7357790;19;20035;-63
2022/03/19 06:07:17;;;;;;;0.00;0.00;;;;;;;8.98;63.50;103092.53;7358739;19;20027;-62
2022/03/19 06:09:43;;;;;;;0.00;0.00;;;;;;;8.97;63.09;103090.72;7356243;19;20022;-62
2022/03/19 06:12:09;;;;;;;0.00;0.00;;;;;;;8.96;63.19;103084.63;7362643;19;20031;-62
2022/03/19 06:14:34;;;;;;;0.00;0.00;;;;;;;8.95;62.79;103080.28;7355498;19;20013;-62
2022/03/19 06:17:00;;;;;;;0.00;0.00;;;;;;;8.96;62.42;103082.03;7344949;19;20480;-62
2022/03/19 06:19:25;;;;;;;0.00;0.00;;;;;;;8.96;62.23;103078.56;7360124;19;20100;-63
2022/03/19 06:21:51;;;;;;;0.08;0.08;;;;;;;8.96;62.44;103078.56;7352550;19;20007;-62
2022/03/19 06:24:17;;;;;;;0.00;0.00;;;;;;;8.96;62.00;103083.75;7352781;19;20014;-63
2022/03/19 06:26:42;;;;;;;0.00;0.00;;;;;;;8.94;61.80;103083.75;7358306;19;20010;-62
2022/03/19 06:29:08;;;;;;;0.00;0.00;;;;;;;8.95;62.12;103082.00;7343218;19;20055;-62
2022/03/19 06:31:33;;;;;;;0.08;0.08;;;;;;;8.96;61.91;103084.63;7354664;19;20050;-63
2022/03/19 06:33:59;;;;;;;0.00;0.00;;;;;;;8.94;62.20;103075.94;7357156;19;20053;-62
2022/03/19 06:39:08;;;;;;;0.08;0.08;;;;;;;9.00;61.56;103076.06;7369691;19;20364;-62
2022/03/19 06:41:34;;;;;;;0.00;0.00;;;;;;;9.00;62.37;103081.25;7361084;19;20010;-63
2022/03/19 06:44:00;;;;;;;0.00;0.00;;;;;;;9.02;62.24;103074.38;7361382;19;20011;-63
2022/03/19 06:46:26;;;;;;;0.10;0.10;;;;;;;9.04;61.91;103083.09;7357681;19;20364;-62
2022/03/19 06:48:58;;;;;;;0.00;0.00;;;;;;;9.07;62.19;103072.75;3620732;19;10022631;-63
2022/03/19 06:51:23;;;;;;;0.00;0.00;;;;;;;9.09;61.77;103071.03;5124203;19;10001131;-63
2022/03/19 06:53:49;;;;;;;0.00;0.00;;;;;;;9.12;62.23;103066.72;7353043;19;20101;-62
2022/03/19 06:56:16;;;;;;;0.00;0.00;;;;;;;9.13;62.09;103065.91;7357941;19;20018;-62
2022/03/19 06:58:41;;;;;;;0.00;0.00;;;;;;;9.02;61.64;103043.09;7357873;19;20031;-62
2022/03/19 07:01:14;;;;;;;0.00;0.00;;;;;;;9.17;61.92;103078.13;7355832;19;20072;-62
2022/03/19 07:03:44;;;;;;;0.00;0.00;;;;;;;9.20;62.40;103073.00;7354794;19;20058;-62
2022/03/19 07:06:11;;;;;;;0.00;0.00;;;;;;;9.21;62.01;103073.03;7357254;19;20014;-63
2022/03/19 07:08:36;;;;;;;0.00;0.00;;;;;;;9.25;62.21;103071.38;7358369;19;20010;-63
2022/03/19 07:11:02;;;;;;;0.00;0.00;;;;;;;9.21;62.22;103049.56;7354982;19;20048;-62
2022/03/19 07:13:28;;;;;;;0.00;0.00;;;;;;;9.29;62.13;103058.44;7357722;19;20576;-63
2022/03/19 07:15:53;;;;;;;0.00;0.00;;;;;;;9.31;62.36;103051.50;7354455;19;20041;-63
2022/03/19 07:18:19;;;;;;;0.00;0.00;;;;;;;9.37;62.43;103061.16;7356681;19;20025;-62
2022/03/19 07:20:44;;;;;;;0.00;0.00;;;;;;;9.40;62.54;103061.25;7372741;19;20098;-62
2022/03/19 07:23:09;;;;;;;0.00;0.00;;;;;;;9.45;62.32;103070.03;7370089;19;20022;-63
2022/03/19 07:25:37;;;;;;;0.00;0.00;;;;;;;9.50;62.65;103068.41;7366656;19;20014;-63
2022/03/19 07:28:08;;;;;;;0.00;0.00;;;;;;;9.56;62.34;103065.91;7354882;19;20046;-63
2022/03/19 07:30:33;;;;;;;0.00;0.00;;;;;;;9.60;62.96;103064.25;7364096;19;20014;-62
2022/03/19 07:33:00;;;;;;;0.00;0.00;;;;;;;9.66;62.97;103053.03;7349399;19;20031;-63
2022/03/19 07:35:26;;;;;;;0.00;0.00;;;;;;;9.70;62.95;103049.66;7363372;19;20094;-62
2022/03/19 07:37:51;;;;;;;0.00;0.00;;;;;;;9.66;62.99;103034.78;7360760;19;20085;-63
2022/03/19 07:43:04;;;;;;;0.00;0.00;;;;;;;9.87;62.41;103038.66;7362449;19;20095;-62
2022/03/19 07:45:30;;;;;;;0.00;0.00;;;;;;;9.92;62.51;103043.94;7359592;19;20037;-62
2022/03/19 07:47:56;;;;;;;0.00;0.00;;;;;;;9.98;61.61;103051.88;7358498;19;20086;-63
2022/03/19 07:50:21;;;;;;;0.00;0.00;;;;;;;10.02;62.38;103051.09;7338231;19;20093;-63
2022/03/19 07:52:47;;;;;;;0.00;0.00;;;;;;;10.08;61.84;103053.81;7357774;19;20010;-63
2022/03/19 07:55:13;;;;;;;0.00;0.00;;;;;;;10.16;61.72;103061.78;7356421;19;20030;-63
2022/03/19 07:57:38;;;;;;;0.10;0.10;;;;;;;10.23;61.63;103047.09;7357948;19;20701;-62
2022/03/19 08:00:04;;;;;;;0.00;0.00;;;;;;;10.29;61.40;103047.22;7355399;19;20006;-63
2022/03/19 08:02:30;;;;;;;0.00;0.00;;;;;;;10.34;62.02;103045.53;7350382;19;20010;-63
2022/03/19 08:04:56;;;;;;;0.00;0.00;;;;;;;10.44;62.41;103047.47;7370700;19;20687;-63
2022/03/19 08:07:22;;;;;;;0.00;0.00;;;;;;;10.52;62.40;103040.63;7359842;19;20053;-63
2022/03/19 08:09:47;;;;;;;0.00;0.00;;;;;;;10.61;62.38;103029.44;7363798;19;20378;-63
2022/03/19 08:12:13;;;;;;;0.00;0.00;;;;;;;10.71;62.29;103030.44;7368541;19;20817;-63
2022/03/19 08:14:39;;;;;;;0.00;0.00;;;;;;;10.82;62.41;103034.97;7359138;19;20035;-63
2022/03/19 08:17:05;;;;;;;0.00;0.00;;;;;;;10.93;62.49;103022.03;7357122;19;20062;-63
2022/03/19 08:19:31;;;;;;;0.00;0.00;;;;;;;11.06;62.11;103021.34;7345419;19;20033;-63
2022/03/19 08:21:56;;;;;;;0.00;0.00;;;;;;;11.21;61.38;103027.63;7357423;19;20023;-63
2022/03/19 08:24:25;;;;;;;0.00;0.00;;;;;;;11.30;61.14;103006.78;7358102;19;20007;-63
2022/03/19 08:26:53;;;;;;;0.08;0.08;;;;;;;11.50;60.78;103014.84;7358268;19;20047;-63
2022/03/19 08:29:23;;;;;;;0.10;0.10;;;;;;;11.63;60.46;103007.13;7358149;19;20006;-63
2022/03/19 08:31:52;;;;;;;0.00;0.00;;;;;;;11.86;60.24;103014.34;7357214;19;20009;-62
2022/03/19 08:34:18;;;;;;;0.00;0.00;;;;;;;12.05;59.59;103005.78;7353367;19;20010;-63
2022/03/19 08:36:43;;;;;;;0.00;0.00;;;;;;;12.24;59.59;103011.19;7357441;19;20009;-63
2022/03/19 08:41:53;;;;;;;0.00;0.00;;;;;;;12.67;58.35;103005.38;7326132;19;20036;-62
2022/03/19 08:44:19;;;;;;;0.00;0.00;;;;;;;12.87;57.35;103009.81;1088417;19;10022445;-63
2022/03/19 08:46:44;;;;;;;0.00;0.00;;;;;;;13.02;57.31;103002.00;7352406;19;20026;-63
2022/03/19 08:49:10;;;;;;;0.00;0.00;;;;;;;13.20;56.95;103015.19;7352887;19;20030;-63
2022/03/19 08:51:41;;;;;;;0.00;0.00;;;;;;;13.39;55.75;102992.56;7341648;19;20074;-63
2022/03/19 08:54:15;;;;;;;0.00;0.00;;;;;;;13.63;56.12;102983.81;7353181;19;20014;-63
2022/03/19 08:56:43;;;;;;;0.10;0.10;;;;;;;13.79;54.38;102981.22;7347422;19;20580;-63
2022/03/19 08:59:09;;;;;;;0.00;0.00;;;;;;;13.94;53.63;102995.25;7354473;19;20037;-63
2022/03/19 09:01:35;;;;;;;0.00;0.00;;;;;;;14.09;52.71;102978.59;7338226;19;20759;-63
2022/03/19 09:04:02;;;;;;;0.10;0.10;;;;;;;14.26;53.72;103000.47;7356314;19;20579;-63
2022/03/19 09:06:27;;;;;;;0.00;0.00;;;;;;;14.39;52.71;102969.75;7350576;19;20053;-62
2022/03/19 09:08:53;;;;;;;0.00;0.00;;;;;;;14.56;53.36;102964.50;7352246;19;20010;-62
2022/03/19 09:11:19;;;;;;;0.00;0.00;;;;;;;14.72;52.12;102968.84;7347767;19;20144;-63
2022/03/19 09:13:49;;;;;;;0.10;0.10;;;;;;;14.91;52.12;102966.16;7348527;19;20011;-63
2022/03/19 09:16:15;;;;;;;0.00;0.00;;;;;;;15.01;52.12;102955.56;7349860;19;20011;-63
2022/03/19 09:18:41;;;;;;;0.00;0.00;;;;;;;15.20;51.10;102951.03;7350769;19;20017;-63
2022/03/19 09:21:07;;;;;;;0.00;0.00;;;;;;;15.32;50.78;102951.00;7341999;19;20045;-63
2022/03/19 09:23:33;;;;;;;0.00;0.00;;;;;;;15.46;50.59;102945.63;7350247;19;20015;-62
2022/03/19 09:25:58;;;;;;;0.00;0.00;;;;;;;15.64;50.41;102943.78;7351579;19;20018;-63
2022/03/19 09:28:24;;;;;;;0.10;0.10;;;;;;;15.71;49.33;102917.38;7355615;19;20417;-63
2022/03/19 09:30:51;;;;;;;0.10;0.10;;;;;;;15.91;48.90;102917.16;7347834;19;20819;-63
2022/03/19 09:33:16;;;;;;;0.00;0.00;;;;;;;16.01;48.09;102918.81;7351437;19;20034;-63
2022/03/19 09:35:42;;;;;;;0.00;0.00;;;;;;;16.22;47.88;102925.66;7344958;19;20049;-63
2022/03/19 09:38:07;;;;;;;0.00;0.00;;;;;;;16.12;47.18;102878.31;7349958;19;20106;-63
2022/03/19 09:40:33;;;;;;;0.00;0.00;;;;;;;16.44;47.02;102917.50;7347956;19;20859;-62
2022/03/19 09:42:59;;;;;;;0.10;0.10;;;;;;;16.46;47.39;102889.34;7351989;19;20011;-63
2022/03/19 09:45:26;;;;;;;0.00;0.00;;;;;;;16.60;46.38;102906.75;7353086;19;20046;-63
2022/03/19 09:47:53;;;;;;;0.08;0.08;;;;;;;16.64;46.68;102902.31;7349453;19;20107;-63
2022/03/19 09:50:19;;;;;;;0.00;0.00;;;;;;;16.81;46.40;102902.13;7351426;19;20078;-63
2022/03/19 09:52:52;;;;;;;0.05;0.05;;;;;;;16.96;45.75;102890.47;7358073;19;20438;-63
2022/03/19 09:55:20;;;;;;;0.00;0.00;;;;;;;17.06;45.53;102897.38;7350586;19;20014;-62
2022/03/19 09:57:46;;;;;;;;;;;;;;;17.29;47.15;102899.66;7352539;19;20475;-63
2022/03/19 10:00:13;;;;;;;0.00;0.00;;;;;;;17.25;45.43;102888.28;7348351;19;19938;-63
2022/03/19 10:02:55;;;;;;;0.00;0.00;;;;;;;17.46;46.83;102886.19;7351823;19;20018;-63
2022/03/19 10:10:55;;;;;;;0.00;0.00;;;;;;;17.93;45.51;102866.00;7349973;19;20013;-62
2022/03/19 10:13:23;;;;;;;0.03;0.03;;;;;;;18.04;45.51;102879.88;7353837;19;20022;-63
2022/03/19 10:15:48;;;;;;;0.10;0.10;;;;;;;18.23;44.70;102875.97;7343097;19;20045;-63
2022/03/19 10:18:14;;;;;;;0.00;0.00;;;;;;;18.47;44.56;102879.03;7342515;19;20035;-63
2022/03/19 10:20:39;;;;;;;0.10;0.10;;;;;;;18.69;44.16;102885.63;7351227;19;20035;-63
2022/03/19 10:23:05;;;;;;;0.00;0.00;;;;;;;18.93;44.04;102866.56;7345426;19;20010;-63
2022/03/19 10:25:31;;;;;;;0.00;0.00;;;;;;;19.16;44.09;102865.16;7351903;19;20023;-63
2022/03/19 10:28:01;;;;;;;0.05;0.05;;;;;;;19.46;43.60;102879.41;7342339;19;20018;-62
2022/03/19 10:30:38;;;;;;;0.00;0.00;;;;;;;19.72;44.24;102854.91;7348705;19;20452;-63
2022/03/19 10:33:06;;;;;;;0.10;0.10;;;;;;;19.85;43.16;102852.78;7352679;19;20014;-63
2022/03/19 10:35:39;;;;;;;0.10;0.10;;;;;;;20.12;41.68;102848.50;7352083;19;20047;-63
2022/03/19 10:38:23;;;;;;;0.10;0.10;;;;;;;20.47;44.07;102861.63;7360990;19;20006;-63
2022/03/19 10:40:54;;;;;;;0.10;0.10;;;;;;;20.52;40.16;102852.66;7361813;19;20686;-63
2022/03/19 10:43:23;;;;;;;0.03;0.03;;;;;;;20.72;41.31;102851.13;7357500;19;20018;-63
2022/03/19 10:45:50;;;;;;;0.10;0.10;;;;;;;20.84;40.19;102841.94;7351658;19;20005;-64
2022/03/19 10:48:26;;;;;;;0.03;0.03;;;;;;;21.12;41.16;102847.22;7355267;19;20546;-63
2022/03/19 10:50:53;;;;;;;0.00;0.00;;;;;;;21.23;38.67;102837.09;1076673;19;10002056;-63
2022/03/19 10:53:20;;;;;;;0.05;0.05;;;;;;;21.38;39.09;102845.50;7351565;19;20013;-63
2022/03/19 10:55:46;;;;;;;0.10;0.10;;;;;;;21.49;39.45;102833.63;7345954;19;20051;-63
2022/03/19 10:58:11;;;;;;;0.00;0.00;;;;;;;21.67;37.88;102831.22;7346707;19;20011;-63
2022/03/19 11:00:37;;;;;;;0.00;0.00;;;;;;;21.82;37.76;102830.66;7342296;19;21206;-63
2022/03/19 11:03:12;;;;;;;0.10;0.10;;;;;;;22.05;38.26;102837.81;7342135;19;20014;-64
2022/03/19 11:05:38;;;;;;;0.03;0.03;;;;;;;;;;7342162;19;20017;-66
2022/03/19 11:08:07;;;;;;;0.10;0.10;;;;;;;22.46;37.24;102833.63;7345242;19;20768;-67
2022/03/19 11:10:37;;;;;;;0.10;0.10;;;;;;;22.75;35.41;102823.59;7335700;19;20006;-66
2022/03/19 11:13:03;;;;;;;0.03;0.03;;;;;;;22.92;34.62;102839.81;7347084;19;20011;-66
2022/03/19 11:15:37;;;;;;;0.08;0.08;;;;;;;23.17;37.37;102830.81;7344197;19;20015;-67
2022/03/19 11:18:07;;;;;;;0.10;0.10;;;;;;;23.24;34.59;102825.16;7349573;19;20003;-65
2022/03/19 11:20:34;;;;;;;0.00;0.00;;;;;;;23.18;33.33;102837.88;7351767;19;20006;-66
2022/03/19 11:23:02;;;;;;;0.07;0.07;;;;;;;23.23;33.70;102835.88;7348326;19;20011;-67
2022/03/19 11:25:30;;;;;;;0.00;0.00;;;;;;;23.28;33.81;102834.75;7349153;19;20476;-65
2022/03/19 11:27:59;;;;;;;;;;;;;;;23.71;37.96;102858.72;7340337;19;20196;-66
2022/03/19 11:30:28;;;;;;;0.10;0.10;;;;;;;23.68;32.64;102843.75;7345178;19;20628;-66
2022/03/19 11:33:02;;;;;;;0.00;0.00;;;;;;;23.79;34.85;102835.25;7349598;19;20010;-67
2022/03/19 11:35:28;;;;;;;0.10;0.10;;;;;;;23.62;33.29;102805.75;7343769;19;20003;-68
2022/03/19 11:38:00;;;;;;;0.10;0.10;;;;;;;23.88;34.22;102808.19;7343174;19;20013;-66
2022/03/19 11:40:35;;;;;;;0.03;0.03;;;;;;;23.94;33.68;102791.00;7335299;19;20007;-67
2022/03/19 11:43:04;;;;;;;0.10;0.10;;;;;;;24.10;33.30;102817.88;7343544;19;20014;-66
2022/03/19 11:46:05;;;;;;;0.00;0.00;;;;;;;24.40;35.96;102811.13;7346284;19;20042;-66